GEC2510 EBLG-EDDS
Flight info
| Callsign | GEC2510 |
|---|---|
| Flight time | N/A |
| Altitude | 23000 |
| Route | LNO N852 DIK M150 KRH KRH1W |
| Aircraft | MD11/H-SDE1E2E3FGHIJ2J3J4J5M1RWXY/LB1D1 |
Departure
| Time | 2026-05-05 18:44 |
|---|---|
| Airport | Liège Airport (EBLG) |
Arrival
| Time | N/A |
|---|---|
| Airport | Stuttgart Airport (EDDS) |
| Time | Latitude | Longitude | Altitude | Speed | Heading |
|---|---|---|---|---|---|
| 2026-05-05 18:32 | 50.63496 | 5.42678 | 646 ft | 0 kts | 340° |
| 2026-05-05 18:38 | 50.63490 | 5.42682 | 646 ft | 4 kts | 339° |
| 2026-05-05 18:38 | 50.63465 | 5.42696 | 646 ft | 4 kts | 346° |
| 2026-05-05 18:38 | 50.63445 | 5.42700 | 646 ft | 2 kts | 3° |
| 2026-05-05 18:38 | 50.63433 | 5.42700 | 646 ft | 4 kts | 329° |
| 2026-05-05 18:39 | 50.63416 | 5.42710 | 646 ft | 4 kts | 338° |
| 2026-05-05 18:39 | 50.63398 | 5.42729 | 646 ft | 4 kts | 298° |
| 2026-05-05 18:39 | 50.63389 | 5.42758 | 649 ft | 4 kts | 277° |
| 2026-05-05 18:39 | 50.63391 | 5.42790 | 649 ft | 4 kts | 235° |
| 2026-05-05 18:40 | 50.63407 | 5.42823 | 646 ft | 4 kts | 242° |
| 2026-05-05 18:40 | 50.63411 | 5.42836 | 648 ft | 0 kts | 250° |
| 2026-05-05 18:41 | 50.63408 | 5.42819 | 648 ft | 4 kts | 250° |
| 2026-05-05 18:41 | 50.63394 | 5.42761 | 646 ft | 7 kts | 250° |
| 2026-05-05 18:41 | 50.63360 | 5.42706 | 646 ft | 8 kts | 193° |
| 2026-05-05 18:42 | 50.63301 | 5.42750 | 646 ft | 12 kts | 133° |
| 2026-05-05 18:42 | 50.63224 | 5.42878 | 647 ft | 23 kts | 138° |
| 2026-05-05 18:42 | 50.63094 | 5.42956 | 651 ft | 19 kts | 177° |
| 2026-05-05 18:42 | 50.63000 | 5.42979 | 662 ft | 5 kts | 148° |
| 2026-05-05 18:43 | 50.62973 | 5.43006 | 666 ft | 8 kts | 147° |
| 2026-05-05 18:43 | 50.62947 | 5.43105 | 668 ft | 14 kts | 82° |
| 2026-05-05 18:43 | 50.63034 | 5.43285 | 662 ft | 39 kts | 45° |
| 2026-05-05 18:43 | 50.63450 | 5.43946 | 646 ft | 131 kts | 44° |
| 2026-05-05 18:44 | 50.64243 | 5.45235 | 833 ft | 182 kts | 49° |
| 2026-05-05 18:44 | 50.65004 | 5.46841 | 1961 ft | 168 kts | 49° |
| 2026-05-05 18:44 | 50.65785 | 5.48095 | 3388 ft | 165 kts | 44° |
| 2026-05-05 18:44 | 50.66641 | 5.49370 | 4299 ft | 183 kts | 44° |
| 2026-05-05 18:45 | 50.67686 | 5.50941 | 4837 ft | 218 kts | 44° |
| 2026-05-05 18:45 | 50.68788 | 5.52622 | 5973 ft | 226 kts | 44° |
| 2026-05-05 18:45 | 50.69937 | 5.54398 | 7015 ft | 235 kts | 44° |
| 2026-05-05 18:45 | 50.71208 | 5.56068 | 8044 ft | 240 kts | 30° |
| 2026-05-05 18:46 | 50.72792 | 5.56906 | 9036 ft | 245 kts | 3° |
| 2026-05-05 18:46 | 50.74465 | 5.56380 | 9998 ft | 250 kts | 331° |
| 2026-05-05 18:46 | 50.75717 | 5.54506 | 10891 ft | 253 kts | 300° |
| 2026-05-05 18:46 | 50.76400 | 5.51913 | 11734 ft | 259 kts | 287° |
| 2026-05-05 18:47 | 50.76892 | 5.49170 | 12583 ft | 266 kts | 284° |
| 2026-05-05 18:47 | 50.77369 | 5.46320 | 13501 ft | 271 kts | 284° |
| 2026-05-05 18:47 | 50.77841 | 5.43424 | 14381 ft | 273 kts | 283° |
| 2026-05-05 18:47 | 50.78267 | 5.40494 | 15259 ft | 275 kts | 281° |
| 2026-05-05 18:48 | 50.78681 | 5.37539 | 16128 ft | 276 kts | 280° |
| 2026-05-05 18:48 | 50.79097 | 5.34560 | 16996 ft | 278 kts | 280° |
| 2026-05-05 18:48 | 50.79518 | 5.31558 | 17831 ft | 281 kts | 280° |
| 2026-05-05 18:48 | 50.79940 | 5.28566 | 18577 ft | 284 kts | 280° |
| 2026-05-05 18:49 | 50.80371 | 5.25496 | 19249 ft | 288 kts | 279° |
| 2026-05-05 18:49 | 50.80595 | 5.22340 | 19897 ft | 289 kts | 265° |
| 2026-05-05 18:49 | 50.80144 | 5.19270 | 20560 ft | 288 kts | 242° |
| 2026-05-05 18:49 | 50.78916 | 5.16804 | 21201 ft | 288 kts | 216° |
| 2026-05-05 18:50 | 50.77116 | 5.15413 | 21708 ft | 293 kts | 191° |
| 2026-05-05 18:50 | 50.75091 | 5.15222 | 22110 ft | 293 kts | 176° |
| 2026-05-05 18:50 | 50.73048 | 5.15500 | 22512 ft | 296 kts | 173° |
| 2026-05-05 18:50 | 50.70986 | 5.15866 | 22813 ft | 300 kts | 173° |
| 2026-05-05 18:51 | 50.68875 | 5.16350 | 22858 ft | 315 kts | 168° |
| 2026-05-05 18:51 | 50.66694 | 5.17306 | 22875 ft | 337 kts | 159° |
| 2026-05-05 18:51 | 50.64535 | 5.19025 | 22870 ft | 358 kts | 147° |
| 2026-05-05 18:51 | 50.62585 | 5.21619 | 22867 ft | 377 kts | 133° |
| 2026-05-05 18:52 | 50.61033 | 5.25059 | 22863 ft | 393 kts | 118° |
| 2026-05-05 18:52 | 50.59987 | 5.28991 | 22858 ft | 397 kts | 110° |
| 2026-05-05 18:52 | 50.59178 | 5.33160 | 22846 ft | 399 kts | 107° |
| 2026-05-05 18:52 | 50.58440 | 5.37360 | 22839 ft | 399 kts | 107° |
| 2026-05-05 18:53 | 50.57693 | 5.41583 | 22846 ft | 399 kts | 107° |
| 2026-05-05 18:53 | 50.56926 | 5.45764 | 22849 ft | 399 kts | 108° |
| 2026-05-05 18:53 | 50.56085 | 5.49917 | 22845 ft | 398 kts | 112° |
| 2026-05-05 18:53 | 50.55246 | 5.54065 | 22846 ft | 400 kts | 101° |
| 2026-05-05 18:54 | 50.55160 | 5.58425 | 22836 ft | 401 kts | 85° |
| 2026-05-05 18:54 | 50.55346 | 5.61309 | 22849 ft | 401 kts | 86° |
| 2026-05-05 18:54 | 50.55340 | 5.65690 | 22842 ft | 398 kts | 98° |